Time;durP1;ratioP1;P1;durP2;ratioP2;P2;SDS_P1;SDS_P2;PMS_P1;PMS_P2;Temp;Humidity;BMP_temperature;BMP_pressure;BME280_temperature;BME280_humidity;BME280_pressure;Samples;Min_cycle;Max_cycle;Signal;HPM_P1;HPM_P2
2022/02/24 00:00:50;;;;;;;20.38;6.93;;;2.00;99.90;;;;;;5070486;28;20036;-66
2022/02/24 00:03:19;;;;;;;17.38;7.43;;;2.00;99.90;;;;;;5055988;28;20044;-65
2022/02/24 00:05:47;;;;;;;16.45;7.00;;;2.00;99.90;;;;;;5071449;28;20071;-65
2022/02/24 00:08:36;;;;;;;14.77;6.47;;;2.00;99.90;;;;;;5070398;28;20076;-65
2022/02/24 00:11:04;;;;;;;14.63;6.10;;;2.00;99.90;;;;;;5038900;28;20642;-65
2022/02/24 00:13:31;;;;;;;16.33;6.93;;;2.00;99.90;;;;;;5071545;28;20094;-63
2022/02/24 00:15:59;;;;;;;12.07;6.00;;;2.00;99.90;;;;;;5071518;28;20052;-66
2022/02/24 00:18:27;;;;;;;16.60;6.03;;;2.00;99.90;;;;;;5071273;28;20071;-66
2022/02/24 00:20:54;;;;;;;17.45;5.93;;;2.00;99.90;;;;;;5070875;28;20044;-65
2022/02/24 00:23:23;;;;;;;12.75;6.28;;;2.00;99.90;;;;;;5063042;28;20044;-66
2022/02/24 00:25:50;;;;;;;16.73;6.07;;;2.00;99.90;;;;;;5071216;28;20049;-65
2022/02/24 00:28:17;;;;;;;19.95;6.65;;;2.00;99.90;;;;;;5057163;28;20041;-64
2022/02/24 00:30:45;;;;;;;13.23;6.05;;;2.00;99.90;;;;;;5073396;28;20036;-65
2022/02/24 00:33:12;;;;;;;12.23;5.45;;;2.00;99.90;;;;;;5073618;28;20049;-66
2022/02/24 00:35:39;;;;;;;11.50;5.40;;;2.00;99.90;;;;;;5074675;28;20113;-65
2022/02/24 00:38:09;;;;;;;13.18;5.68;;;2.00;99.90;;;;;;5061510;28;20132;-65
2022/02/24 00:40:36;;;;;;;12.15;5.20;;;1.90;99.90;;;;;;5073044;28;20045;-65
2022/02/24 00:43:03;;;;;;;13.10;5.60;;;1.90;99.90;;;;;;5073972;28;20044;-65
2022/02/24 00:45:32;;;;;;;12.52;5.40;;;1.90;99.90;;;;;;5073597;28;20078;-65
2022/02/24 00:47:59;;;;;;;15.25;6.10;;;1.90;99.90;;;;;;5074697;28;20053;-65
2022/02/24 00:50:27;;;;;;;16.13;5.63;;;1.90;99.90;;;;;;5073950;28;20131;-64
2022/02/24 00:52:56;;;;;;;13.20;6.25;;;1.90;99.90;;;;;;5057473;28;20110;-65
2022/02/24 00:55:25;;;;;;;12.05;5.82;;;1.90;99.90;;;;;;5074833;28;20062;-65
2022/02/24 00:57:53;;;;;;;12.65;5.35;;;1.90;99.90;;;;;;5075556;28;20056;-65
2022/02/24 01:00:21;;;;;;;15.50;6.45;;;1.80;99.90;;;;;;5074626;28;20116;-65
2022/02/24 01:02:48;;;;;;;11.60;5.38;;;1.80;99.90;;;;;;5074593;28;20573;-66
2022/02/24 01:05:16;;;;;;;12.88;5.40;;;1.80;99.90;;;;;;5075123;28;20036;-65
2022/02/24 01:07:44;;;;;;;13.32;5.38;;;1.80;99.90;;;;;;5073925;28;20499;-65
2022/02/24 01:10:12;;;;;;;13.65;5.63;;;1.80;99.90;;;;;;5073891;28;20063;-65
2022/02/24 01:12:39;;;;;;;13.27;5.53;;;1.80;99.90;;;;;;5074081;28;20539;-66
2022/02/24 01:15:08;;;;;;;14.13;5.63;;;1.80;99.90;;;;;;5073442;28;20075;-65
2022/02/24 01:17:36;;;;;;;12.40;5.13;;;1.80;99.90;;;;;;5073389;28;20501;-65
2022/02/24 01:20:05;;;;;;;10.40;4.95;;;1.80;99.90;;;;;;5074218;28;20036;-64
2022/02/24 01:22:32;;;;;;;15.98;5.22;;;1.90;99.90;;;;;;5072838;28;20045;-65
2022/02/24 01:25:00;;;;;;;15.35;6.40;;;1.80;99.90;;;;;;5055689;28;20077;-66
2022/02/24 01:27:27;;;;;;;16.20;5.97;;;1.90;99.90;;;;;;5039353;28;20056;-66
2022/02/24 01:29:54;;;;;;;11.18;5.22;;;1.90;99.90;;;;;;5071210;28;20044;-65
2022/02/24 01:32:24;;;;;;;12.77;5.35;;;1.80;99.90;;;;;;5060326;28;20523;-66
2022/02/24 01:34:58;;;;;;;13.23;5.70;;;1.80;99.90;;;;;;5072093;28;20045;-65
2022/02/24 01:37:25;;;;;;;10.43;5.03;;;1.80;99.90;;;;;;5072476;28;20496;-65
2022/02/24 01:39:53;;;;;;;13.70;5.43;;;1.80;99.90;;;;;;5071706;28;20044;-65
2022/02/24 01:42:21;;;;;;;14.23;5.85;;;1.90;99.90;;;;;;5053626;28;20036;-64
2022/02/24 01:44:48;;;;;;;13.23;5.30;;;1.90;99.90;;;;;;5066595;28;20435;-65
2022/02/24 01:47:17;;;;;;;12.88;5.35;;;1.90;99.90;;;;;;5053960;28;20591;-65
2022/02/24 01:49:44;;;;;;;14.48;5.75;;;1.90;99.90;;;;;;5053100;28;20046;-65
2022/02/24 01:52:12;;;;;;;13.95;5.45;;;1.90;99.90;;;;;;5061233;28;20079;-65
2022/02/24 01:54:41;;;;;;;16.63;5.88;;;2.00;99.90;;;;;;5071785;28;20439;-65
2022/02/24 01:57:08;;;;;;;10.57;5.05;;;2.00;99.90;;;;;;5051207;28;20052;-65
2022/02/24 01:59:36;;;;;;;16.23;5.53;;;2.00;99.90;;;;;;5071279;28;20040;-65
2022/02/24 02:02:06;;;;;;;9.25;4.95;;;2.00;99.90;;;;;;5068481;28;20045;-65
2022/02/24 02:04:36;;;;;;;13.82;5.05;;;2.10;99.90;;;;;;5071460;28;20079;-65
2022/02/24 02:07:03;;;;;;;10.73;4.78;;;2.10;99.90;;;;;;5053020;28;20045;-66
2022/02/24 02:09:34;;;;;;;11.63;4.88;;;2.10;99.90;;;;;;5071667;28;20072;-66
2022/02/24 02:12:02;;;;;;;9.73;4.47;;;2.10;99.90;;;;;;5071435;28;20037;-66
2022/02/24 02:14:30;;;;;;;10.68;4.47;;;2.10;99.90;;;;;;5053231;28;20052;-65
2022/02/24 02:16:59;;;;;;;13.27;4.72;;;2.10;99.90;;;;;;5072422;28;20049;-66
2022/02/24 02:19:28;;;;;;;10.90;4.22;;;2.10;99.90;;;;;;5072299;28;20048;-65
2022/02/24 02:21:55;;;;;;;10.07;4.25;;;2.10;99.90;;;;;;5070137;28;20422;-65
2022/02/24 02:24:24;;;;;;;10.10;4.65;;;2.10;99.90;;;;;;5071721;28;20063;-66
2022/02/24 02:26:52;;;;;;;13.20;5.15;;;2.10;99.90;;;;;;5071704;28;20044;-65
2022/02/24 02:29:20;;;;;;;14.75;4.43;;;2.00;99.90;;;;;;5068818;28;20563;-65
2022/02/24 02:31:47;;;;;;;13.77;4.95;;;2.00;99.90;;;;;;5057180;28;20605;-65
2022/02/24 02:34:17;;;;;;;11.95;4.75;;;2.00;99.90;;;;;;5070647;28;20052;-64
2022/02/24 02:36:46;;;;;;;9.63;4.55;;;2.00;99.90;;;;;;5067583;28;20040;-65
2022/02/24 02:39:15;;;;;;;11.18;4.57;;;1.90;99.90;;;;;;5053387;28;20138;-65
2022/02/24 02:41:45;;;;;;;12.82;4.57;;;1.90;99.90;;;;;;5032462;28;20554;-65
2022/02/24 02:44:14;;;;;;;9.40;4.30;;;1.90;99.90;;;;;;5071359;28;20029;-66
2022/02/24 02:46:43;;;;;;;17.55;5.07;;;1.90;99.90;;;;;;5070977;28;20044;-66
2022/02/24 02:49:11;;;;;;;8.43;4.47;;;1.90;99.90;;;;;;5070622;28;20093;-66
2022/02/24 02:51:38;;;;;;;11.02;4.63;;;1.90;99.90;;;;;;5053042;28;20053;-66
2022/02/24 02:54:06;;;;;;;10.70;4.30;;;1.90;99.90;;;;;;5068934;28;20503;-66
2022/02/24 02:56:33;;;;;;;10.32;4.78;;;1.90;99.90;;;;;;5071825;28;20047;-66
2022/02/24 02:59:01;;;;;;;13.52;5.88;;;1.90;99.90;;;;;;5070724;28;20411;-66
2022/02/24 03:01:28;;;;;;;10.27;4.47;;;1.90;99.90;;;;;;5052488;28;20049;-65
2022/02/24 03:03:56;;;;;;;9.32;4.40;;;2.00;99.90;;;;;;5070526;28;20048;-65
2022/02/24 03:06:23;;;;;;;8.40;4.47;;;1.90;99.90;;;;;;5070950;28;20090;-65
2022/02/24 03:08:50;;;;;;;11.65;4.15;;;2.00;99.90;;;;;;5070123;28;20087;-65
2022/02/24 03:11:17;;;;;;;17.23;4.60;;;2.00;99.90;;;;;;5069988;28;20037;-66
2022/02/24 03:13:44;;;;;;;10.20;4.80;;;2.00;99.90;;;;;;5053098;28;20503;-66
2022/02/24 03:16:12;;;;;;;11.95;4.18;;;2.10;99.90;;;;;;5068029;28;20368;-66
2022/02/24 03:18:39;;;;;;;9.75;4.03;;;2.10;99.90;;;;;;5053082;28;20444;-65
2022/02/24 03:21:06;;;;;;;9.57;4.15;;;2.20;99.90;;;;;;5069853;28;20047;-65
2022/02/24 03:23:33;;;;;;;8.30;4.18;;;2.30;99.90;;;;;;5069710;28;20503;-65
2022/02/24 03:26:01;;;;;;;10.73;3.85;;;2.30;99.90;;;;;;5069836;28;20086;-64
2022/02/24 03:28:29;;;;;;;11.82;4.07;;;2.40;99.90;;;;;;5070934;28;20130;-65
2022/02/24 03:30:57;;;;;;;9.05;3.97;;;2.50;99.90;;;;;;5053368;28;20043;-66
2022/02/24 03:33:24;;;;;;;9.20;3.40;;;2.60;99.90;;;;;;5052274;28;20059;-66
2022/02/24 03:35:51;;;;;;;13.98;5.25;;;2.70;99.90;;;;;;5070753;28;20048;-66
2022/02/24 03:38:18;;;;;;;9.77;3.70;;;2.80;99.90;;;;;;5051230;28;20418;-66
2022/02/24 03:40:46;;;;;;;11.32;3.90;;;2.80;99.90;;;;;;5057369;28;20445;-66
2022/02/24 03:43:13;;;;;;;11.05;3.83;;;2.90;99.90;;;;;;5070162;28;20052;-65
2022/02/24 03:45:41;;;;;;;11.65;4.07;;;2.90;99.90;;;;;;5059989;28;20127;-65
2022/02/24 03:48:08;;;;;;;10.25;3.58;;;3.00;99.90;;;;;;5070282;28;20044;-65
2022/02/24 03:50:35;;;;;;;12.02;4.90;;;3.00;99.90;;;;;;5069075;28;20113;-67
2022/02/24 03:53:02;;;;;;;9.40;4.00;;;3.00;99.90;;;;;;5057536;28;20392;-65
2022/02/24 03:55:29;;;;;;;9.85;3.78;;;3.10;99.90;;;;;;5068966;28;20048;-65
2022/02/24 03:57:57;;;;;;;9.52;3.67;;;3.10;99.90;;;;;;5067494;28;20032;-65
2022/02/24 04:00:24;;;;;;;10.43;4.00;;;3.20;99.90;;;;;;5063698;28;20509;-65
2022/02/24 04:02:51;;;;;;;8.45;4.05;;;3.20;99.90;;;;;;5051535;28;20037;-65
2022/02/24 04:05:19;;;;;;;10.73;3.55;;;3.20;99.90;;;;;;5069671;28;20050;-65
2022/02/24 04:07:46;;;;;;;10.05;3.80;;;3.30;99.90;;;;;;5071394;28;20063;-66
2022/02/24 04:10:15;;;;;;;10.07;3.53;;;3.20;99.90;;;;;;5052777;28;20106;-64
2022/02/24 04:12:42;;;;;;;11.07;3.88;;;3.30;99.90;;;;;;5052773;28;20582;-66
2022/02/24 04:15:11;;;;;;;7.03;3.72;;;3.30;99.90;;;;;;5069703;28;20063;-66
2022/02/24 04:17:38;;;;;;;7.97;3.95;;;3.30;99.90;;;;;;5071002;28;20555;-66
2022/02/24 04:20:07;;;;;;;7.95;3.30;;;3.40;99.90;;;;;;5069560;28;20052;-66
2022/02/24 04:22:34;;;;;;;7.20;3.55;;;3.50;99.90;;;;;;5050114;28;20056;-67
2022/02/24 04:25:03;;;;;;;10.60;3.83;;;3.50;99.90;;;;;;5070204;28;20040;-66
2022/02/24 04:27:30;;;;;;;9.38;3.70;;;3.50;99.90;;;;;;5070193;28;20658;-66
2022/02/24 04:29:58;;;;;;;11.20;3.90;;;3.50;99.90;;;;;;5062227;28;20041;-66
2022/02/24 04:32:25;;;;;;;11.65;3.40;;;3.50;99.90;;;;;;5063101;28;20087;-65
2022/02/24 04:34:52;;;;;;;10.25;3.67;;;3.50;99.90;;;;;;5069865;28;20123;-66
2022/02/24 04:37:20;;;;;;;8.07;3.53;;;3.60;99.90;;;;;;5069341;28;20040;-66
2022/02/24 04:39:48;;;;;;;10.45;3.60;;;3.60;99.90;;;;;;5069035;28;20416;-66
2022/02/24 04:42:15;;;;;;;10.60;3.53;;;3.60;99.90;;;;;;5070493;28;20068;-66
2022/02/24 04:44:42;;;;;;;12.68;3.85;;;3.60;99.90;;;;;;5068961;28;20091;-67
2022/02/24 04:47:10;;;;;;;13.90;4.15;;;3.60;99.90;;;;;;5069271;28;20072;-66
2022/02/24 04:49:37;;;;;;;9.27;3.78;;;3.50;99.90;;;;;;5051505;28;20052;-65
2022/02/24 04:52:05;;;;;;;10.35;4.07;;;3.50;99.90;;;;;;5067861;28;20053;-66
2022/02/24 04:54:32;;;;;;;7.07;3.40;;;3.40;99.90;;;;;;5068313;28;20041;-66
2022/02/24 04:56:59;;;;;;;8.68;3.60;;;3.40;99.90;;;;;;5067038;28;20131;-66
2022/02/24 04:59:27;;;;;;;10.20;4.40;;;3.30;99.90;;;;;;5065939;28;20063;-66
2022/02/24 05:01:54;;;;;;;8.45;4.05;;;3.20;99.90;;;;;;5066032;28;20036;-65
2022/02/24 05:04:22;;;;;;;14.20;5.40;;;3.10;99.90;;;;;;5050577;28;20127;-66
2022/02/24 05:06:49;;;;;;;10.57;4.70;;;3.10;99.90;;;;;;5067998;28;20456;-65
2022/02/24 05:09:19;;;;;;;12.48;4.65;;;3.10;99.90;;;;;;5068169;28;20048;-65
2022/02/24 05:11:46;;;;;;;7.72;4.47;;;3.00;99.90;;;;;;5062670;28;20041;-65
2022/02/24 05:14:14;;;;;;;11.52;4.78;;;3.10;99.90;;;;;;5069781;28;20071;-65
2022/02/24 05:16:41;;;;;;;8.45;3.53;;;3.30;99.90;;;;;;5054391;28;20094;-65
2022/02/24 05:19:08;;;;;;;9.80;4.20;;;3.30;99.90;;;;;;5073794;28;20068;-65
2022/02/24 05:21:36;;;;;;;13.57;4.82;;;3.40;99.90;;;;;;5061972;28;20048;-65
2022/02/24 05:24:04;;;;;;;17.67;6.65;;;3.40;99.90;;;;;;5072834;28;20123;-65
2022/02/24 05:26:31;;;;;;;10.43;5.63;;;3.40;99.90;;;;;;5072340;28;20071;-66
2022/02/24 05:28:58;;;;;;;8.27;4.45;;;3.40;99.90;;;;;;5068677;28;20098;-66
2022/02/24 05:31:26;;;;;;;10.80;4.53;;;3.40;99.90;;;;;;5063211;28;20118;-65
2022/02/24 05:33:53;;;;;;;14.48;4.20;;;3.30;99.90;;;;;;5065291;28;20045;-65
2022/02/24 05:36:21;;;;;;;11.70;4.20;;;3.30;99.90;;;;;;5071816;28;20500;-65
2022/02/24 05:38:48;;;;;;;7.18;3.53;;;3.30;99.90;;;;;;5072843;28;20059;-65
2022/02/24 05:41:15;;;;;;;10.98;4.32;;;3.30;99.90;;;;;;5070883;28;20198;-65
2022/02/24 05:43:44;;;;;;;9.82;3.72;;;3.30;99.90;;;;;;5071372;28;20082;-65
2022/02/24 05:46:13;;;;;;;10.10;4.38;;;3.40;99.90;;;;;;5062115;28;20079;-65
2022/02/24 05:48:40;;;;;;;11.35;3.88;;;3.40;99.90;;;;;;5054106;28;20133;-65
2022/02/24 05:51:07;;;;;;;10.43;4.15;;;3.50;99.90;;;;;;5036589;28;20080;-65
2022/02/24 05:53:34;;;;;;;9.27;4.03;;;3.50;99.90;;;;;;5069712;28;20072;-65
2022/02/24 05:56:02;;;;;;;8.55;4.85;;;3.60;99.90;;;;;;5052759;28;20504;-66
2022/02/24 05:58:29;;;;;;;10.20;5.00;;;3.60;99.90;;;;;;5065820;28;20535;-65
2022/02/24 06:00:56;;;;;;;11.57;4.70;;;3.70;99.90;;;;;;5065272;28;20033;-65
2022/02/24 06:03:24;;;;;;;12.50;4.80;;;3.80;99.90;;;;;;5058939;28;20070;-65
2022/02/24 06:05:53;;;;;;;9.13;4.05;;;3.80;99.90;;;;;;5072319;28;20110;-65
2022/02/24 06:08:21;;;;;;;10.50;4.22;;;3.90;99.90;;;;;;5072239;28;20044;-64
2022/02/24 06:10:50;;;;;;;13.20;5.32;;;3.90;99.90;;;;;;5064147;28;20567;-65
2022/02/24 06:13:17;;;;;;;12.35;5.28;;;3.90;99.90;;;;;;5071674;28;20431;-66
2022/02/24 06:15:45;;;;;;;12.57;6.07;;;3.90;99.90;;;;;;5072408;28;20044;-64
2022/02/24 06:18:18;;;;;;;11.48;5.53;;;3.90;99.90;;;;;;5072116;28;20052;-66
2022/02/24 06:20:48;;;;;;;14.27;5.35;;;4.00;99.90;;;;;;5071919;28;20047;-64
2022/02/24 06:23:15;;;;;;;13.50;5.20;;;4.10;99.90;;;;;;5071802;28;20048;-66
2022/02/24 06:25:42;;;;;;;9.27;4.30;;;4.10;99.90;;;;;;5072173;28;20557;-65
2022/02/24 06:28:10;;;;;;;12.43;4.53;;;4.10;99.90;;;;;;5071965;28;20396;-65
2022/02/24 06:30:37;;;;;;;9.95;3.83;;;4.10;99.90;;;;;;5071550;28;20044;-64
2022/02/24 06:33:04;;;;;;;11.23;4.32;;;4.20;99.90;;;;;;5072278;28;20052;-66
2022/02/24 06:35:32;;;;;;;9.82;3.78;;;4.20;99.90;;;;;;5054390;28;20049;-66
2022/02/24 06:38:01;;;;;;;12.52;5.53;;;4.20;99.90;;;;;;5065772;28;20051;-65
2022/02/24 06:40:29;;;;;;;12.75;5.47;;;4.30;99.90;;;;;;5069893;28;20124;-65
2022/02/24 06:42:59;;;;;;;8.98;4.82;;;4.30;99.90;;;;;;5061601;28;20056;-64
2022/02/24 06:45:26;;;;;;;10.63;4.25;;;4.30;99.90;;;;;;5052001;28;20047;-66
2022/02/24 06:47:54;;;;;;;12.75;4.80;;;4.40;99.90;;;;;;5054913;28;20114;-66
2022/02/24 06:50:22;;;;;;;9.15;4.75;;;4.40;99.90;;;;;;5050434;28;20148;-67
2022/02/24 06:52:49;;;;;;;10.98;4.55;;;4.50;99.90;;;;;;5059524;28;20056;-66
2022/02/24 06:55:16;;;;;;;14.05;4.47;;;4.50;99.90;;;;;;5055788;28;20040;-66
2022/02/24 06:57:46;;;;;;;12.15;5.20;;;4.60;99.90;;;;;;5053265;28;20068;-65
2022/02/24 07:00:15;;;;;;;10.25;4.45;;;4.60;99.90;;;;;;5072410;28;20048;-66
2022/02/24 07:02:43;;;;;;;12.05;4.43;;;4.70;99.90;;;;;;5058038;28;20112;-67
2022/02/24 07:05:10;;;;;;;12.32;5.20;;;4.70;99.90;;;;;;5063558;28;20069;-67
2022/02/24 07:07:38;;;;;;;11.80;4.43;;;4.80;99.90;;;;;;5069331;28;20052;-66
2022/02/24 07:10:12;;;;;;;11.00;4.47;;;4.80;99.90;;;;;;5051408;28;20041;-67
2022/02/24 07:12:40;;;;;;;12.80;4.75;;;4.80;99.90;;;;;;5066485;28;20495;-67
2022/02/24 07:15:09;;;;;;;11.98;4.57;;;4.90;99.90;;;;;;5066446;28;20049;-67
2022/02/24 07:17:45;;;;;;;10.73;5.07;;;5.10;99.90;;;;;;5060016;28;20037;-67
2022/02/24 07:20:15;;;;;;;10.50;5.50;;;5.10;99.90;;;;;;5058156;28;20052;-67
2022/02/24 07:22:43;;;;;;;10.07;4.90;;;5.20;99.90;;;;;;5053186;28;20079;-66
2022/02/24 07:25:12;;;;;;;10.25;5.30;;;5.20;99.90;;;;;;5068072;28;20136;-67
2022/02/24 07:27:42;;;;;;;12.88;5.40;;;5.40;99.90;;;;;;5050317;28;20483;-68
2022/02/24 07:30:11;;;;;;;12.88;4.75;;;5.50;99.90;;;;;;5068875;28;20049;-68
2022/02/24 07:32:39;;;;;;;8.70;4.38;;;5.60;99.90;;;;;;5040102;28;20041;-67
2022/02/24 07:35:10;;;;;;;;;;;5.80;99.90;;;;;;5052390;28;20044;-67
2022/02/24 07:37:37;;;;;;;10.75;4.38;;;5.90;99.90;;;;;;5069733;28;19963;-68
2022/02/24 07:40:05;;;;;;;13.30;5.82;;;6.10;99.90;;;;;;5071557;28;20446;-67
2022/02/24 07:42:35;;;;;;;11.95;4.82;;;6.10;99.90;;;;;;5067907;28;20048;-67
2022/02/24 07:45:07;;;;;;;17.17;5.30;;;6.20;99.90;;;;;;5066784;28;20486;-67
2022/02/24 07:47:34;;;;;;;11.68;5.45;;;6.30;99.90;;;;;;5070006;28;20079;-66
2022/02/24 07:50:03;;;;;;;12.55;5.13;;;6.40;99.90;;;;;;5069124;28;20048;-68
2022/02/24 07:52:30;;;;;;;11.65;5.30;;;6.50;99.90;;;;;;5070097;28;20486;-68
2022/02/24 07:54:58;;;;;;;12.93;5.90;;;6.50;99.90;;;;;;5070962;28;20406;-68
2022/02/24 07:57:25;;;;;;;12.68;5.10;;;6.50;99.90;;;;;;5057591;28;20081;-67
2022/02/24 07:59:53;;;;;;;12.02;5.50;;;6.40;99.90;;;;;;5052717;28;20064;-67
2022/02/24 08:02:20;;;;;;;17.42;6.32;;;6.40;99.90;;;;;;5061520;28;20131;-67
2022/02/24 08:04:48;;;;;;;16.13;5.65;;;6.40;99.90;;;;;;5051968;28;20049;-66
2022/02/24 08:07:17;;;;;;;13.75;5.35;;;6.50;99.90;;;;;;5069647;28;20037;-67
2022/02/24 08:09:45;;;;;;;12.73;6.13;;;6.60;99.90;;;;;;5067554;28;20037;-65
2022/02/24 08:14:58;;;;;;;15.48;6.03;;;6.80;99.90;;;;;;5052458;28;20102;-66
2022/02/24 08:17:25;;;;;;;15.88;5.70;;;6.90;99.90;;;;;;5069266;28;20551;-67
2022/02/24 08:19:53;;;;;;;13.45;5.55;;;6.90;99.90;;;;;;5070302;28;20085;-66
2022/02/24 08:22:22;;;;;;;9.85;5.60;;;7.00;99.90;;;;;;5067835;28;20040;-67
2022/02/24 08:24:49;;;;;;;14.63;5.68;;;7.00;99.90;;;;;;5070808;28;20120;-67
2022/02/24 08:27:17;;;;;;;11.23;5.43;;;7.00;99.90;;;;;;5068048;28;20041;-67
2022/02/24 08:29:46;;;;;;;11.10;5.55;;;7.00;99.90;;;;;;5070557;28;20041;-66
2022/02/24 08:32:14;;;;;;;10.00;5.57;;;6.90;99.90;;;;;;5051435;28;20064;-67
2022/02/24 08:34:41;;;;;;;12.40;5.38;;;6.90;99.90;;;;;;5070468;28;20559;-66
2022/02/24 08:37:09;;;;;;;12.63;6.80;;;6.90;99.90;;;;;;5050259;28;20044;-67
2022/02/24 08:39:36;;;;;;;14.43;6.30;;;6.80;99.90;;;;;;5061803;28;20055;-66
2022/02/24 08:42:03;;;;;;;12.00;5.93;;;6.90;99.90;;;;;;5069759;28;20075;-65
2022/02/24 08:44:31;;;;;;;15.50;5.88;;;7.00;99.90;;;;;;5060645;28;20049;-67
2022/02/24 08:46:58;;;;;;;15.93;6.43;;;7.10;99.90;;;;;;5070146;28;20049;-66
2022/02/24 08:49:28;;;;;;;15.57;6.53;;;7.10;99.90;;;;;;5075246;28;20052;-66
2022/02/24 08:51:55;;;;;;;15.00;6.35;;;7.30;99.90;;;;;;5068370;28;20053;-67
2022/02/24 08:54:23;;;;;;;11.98;5.85;;;7.40;99.90;;;;;;5057143;28;20139;-68
2022/02/24 08:56:50;;;;;;;11.07;5.85;;;7.50;99.90;;;;;;5073724;28;20079;-68
2022/02/24 08:59:17;;;;;;;17.73;6.40;;;7.70;99.90;;;;;;5073438;28;20557;-66
2022/02/24 09:01:44;;;;;;;12.43;5.70;;;7.80;99.90;;;;;;5071869;28;20044;-68
2022/02/24 09:04:14;;;;;;;13.35;5.57;;;8.00;99.90;;;;;;5072773;28;20044;-66
2022/02/24 09:06:41;;;;;;;12.95;5.82;;;8.20;99.90;;;;;;5050465;28;20039;-67
2022/02/24 09:09:09;;;;;;;11.27;5.57;;;8.30;99.90;;;;;;5073277;28;20411;-66
2022/02/24 09:11:36;;;;;;;11.32;6.57;;;8.40;99.90;;;;;;5048824;28;20102;-66
2022/02/24 09:14:04;;;;;;;17.40;7.13;;;8.40;99.90;;;;;;5074279;28;20079;-66
2022/02/24 09:16:31;;;;;;;12.77;5.93;;;8.50;99.90;;;;;;5072450;28;20067;-66
2022/02/24 09:18:58;;;;;;;10.23;5.88;;;8.60;99.90;;;;;;5073373;28;20509;-67
2022/02/24 09:21:26;;;;;;;19.67;7.55;;;8.70;99.90;;;;;;5072791;28;20040;-66
2022/02/24 09:23:53;;;;;;;9.85;5.95;;;8.80;99.90;;;;;;5073200;28;20060;-67
2022/02/24 09:26:21;;;;;;;13.32;5.95;;;8.80;99.90;;;;;;5072830;28;20045;-66
2022/02/24 09:28:48;;;;;;;14.82;6.35;;;9.00;99.90;;;;;;5043988;28;20565;-67
2022/02/24 09:31:16;;;;;;;11.52;5.90;;;9.20;99.90;;;;;;5071991;28;20507;-67
2022/02/24 09:33:43;;;;;;;16.92;6.15;;;9.20;99.90;;;;;;5070583;28;20462;-66
2022/02/24 09:36:10;;;;;;;9.98;5.65;;;9.10;99.90;;;;;;5071957;28;20045;-66
2022/02/24 09:38:40;;;;;;;14.57;6.65;;;9.30;99.90;;;;;;5071981;28;20052;-67
2022/02/24 09:41:08;;;;;;;12.65;7.03;;;9.40;99.90;;;;;;5069748;28;20058;-66
2022/02/24 09:43:36;;;;;;;13.63;5.90;;;9.50;99.90;;;;;;5073057;28;20044;-67
2022/02/24 09:46:07;;;;;;;14.60;6.30;;;9.70;99.90;;;;;;5053577;28;20065;-68
2022/02/24 09:48:41;;;;;;;13.90;6.15;;;9.70;99.90;;;;;;5073354;28;20392;-67
2022/02/24 09:51:12;;;;;;;14.68;6.93;;;9.80;99.90;;;;;;5049781;28;20040;-67
2022/02/24 09:53:40;;;;;;;13.65;7.80;;;9.80;99.90;;;;;;5057441;28;20124;-67
2022/02/24 09:56:15;;;;;;;13.57;6.10;;;9.90;99.90;;;;;;5055846;28;20044;-66
2022/02/24 09:58:45;;;;;;;18.30;6.78;;;10.00;99.90;;;;;;5065189;28;20072;-66
2022/02/24 10:01:14;;;;;;;14.00;6.72;;;10.20;99.90;;;;;;5063333;28;20037;-66
2022/02/24 10:03:52;;;;;;;14.95;6.20;;;10.20;99.90;;;;;;5053391;28;20041;-66
2022/02/24 10:06:41;;;;;;;16.98;6.22;;;10.30;99.90;;;;;;5068334;28;20131;-67
2022/02/24 10:09:10;;;;;;;11.35;6.43;;;10.60;99.90;;;;;;5052377;28;20045;-67
2022/02/24 10:11:41;;;;;;;12.48;5.78;;;10.70;99.90;;;;;;5070866;28;20041;-66
2022/02/24 10:14:11;;;;;;;14.07;6.70;;;10.80;99.90;;;;;;5069936;28;20143;-66
2022/02/24 10:17:16;;;;;;;14.65;6.60;;;11.00;99.90;;;;;;5054427;28;20075;-67
2022/02/24 10:19:46;;;;;;;9.73;5.82;;;11.10;99.90;;;;;;5019248;28;20144;-66
2022/02/24 10:22:19;;;;;;;13.30;6.78;;;11.20;99.90;;;;;;5014555;28;20178;-66
2022/02/24 10:25:15;;;;;;;12.93;6.05;;;11.40;99.90;;;;;;5019244;28;20049;-66
2022/02/24 10:27:44;;;;;;;11.45;6.68;;;11.40;99.90;;;;;;5013970;28;20464;-66
2022/02/24 10:30:14;;;;;;;11.43;6.25;;;11.60;99.90;;;;;;5026844;28;20132;-66
2022/02/24 10:32:45;;;;;;;12.18;6.13;;;11.60;99.90;;;;;;5026225;28;20093;-67
2022/02/24 10:35:30;;;;;;;10.55;6.57;;;11.70;99.90;;;;;;5012628;28;20081;-67
2022/02/24 10:38:10;;;;;;;11.23;5.88;;;11.80;99.90;;;;;;5019748;28;20059;-66
2022/02/24 10:40:49;;;;;;;12.35;6.13;;;11.90;99.90;;;;;;5028723;28;20119;-66
2022/02/24 10:43:21;;;;;;;12.52;5.22;;;11.90;99.90;;;;;;5006065;28;20046;-66
2022/02/24 10:45:57;;;;;;;12.75;5.95;;;12.10;99.90;;;;;;5008234;28;20429;-66
2022/02/24 10:48:26;;;;;;;13.52;6.25;;;12.40;99.90;;;;;;5022006;28;20053;-66
2022/02/24 10:51:05;;;;;;;10.73;5.45;;;12.50;99.90;;;;;;4997530;28;20046;-67
2022/02/24 10:53:35;;;;;;;10.88;5.60;;;12.70;99.90;;;;;;5040707;28;20143;-66
2022/02/24 10:56:10;;;;;;;9.55;5.32;;;13.00;99.90;;;;;;5071437;28;20447;-67
2022/02/24 10:58:44;;;;;;;11.18;5.60;;;13.10;99.90;;;;;;5066842;28;20047;-66
2022/02/24 11:01:18;;;;;;;9.75;4.90;;;13.10;99.90;;;;;;5067760;28;20050;-66
2022/02/24 11:03:49;;;;;;;10.32;5.50;;;12.90;99.90;;;;;;5052654;28;20457;-66
2022/02/24 11:06:20;;;;;;;9.60;4.70;;;12.80;99.90;;;;;;5068377;28;20044;-66
2022/02/24 11:08:51;;;;;;;10.90;5.70;;;12.70;99.90;;;;;;5071643;28;20048;-66
2022/02/24 11:11:24;;;;;;;9.07;5.32;;;12.60;99.90;;;;;;5072679;28;20112;-66
2022/02/24 11:13:53;;;;;;;10.07;4.82;;;12.70;99.90;;;;;;5071247;28;20045;-66
2022/02/24 11:16:22;;;;;;;14.95;5.57;;;12.80;99.90;;;;;;5071098;28;20127;-66
2022/02/24 11:18:50;;;;;;;8.18;4.72;;;12.90;99.90;;;;;;5070884;28;20051;-67
2022/02/24 11:21:21;;;;;;;11.90;5.55;;;13.00;99.90;;;;;;5072336;28;20037;-66
2022/02/24 11:23:49;;;;;;;12.75;5.78;;;13.30;99.90;;;;;;5072044;28;20082;-67
2022/02/24 11:26:21;;;;;;;9.63;4.97;;;13.60;99.90;;;;;;5070447;28;20044;-66
2022/02/24 11:29:06;;;;;;;11.68;5.70;;;13.90;99.90;;;;;;5069896;28;20054;-66
2022/02/24 11:31:43;;;;;;;10.50;5.00;;;14.40;99.90;;;;;;5046650;28;20087;-66
2022/02/24 11:34:11;;;;;;;12.60;4.88;;;14.70;99.90;;;;;;5070386;28;20052;-66
2022/02/24 11:36:40;;;;;;;8.23;4.57;;;15.10;99.90;;;;;;5069925;28;20048;-67
2022/02/24 11:39:10;;;;;;;8.80;4.47;;;15.40;99.90;;;;;;5070201;28;20499;-65
2022/02/24 11:41:56;;;;;;;9.57;4.85;;;15.60;99.90;;;;;;5066330;28;20041;-67
2022/02/24 11:44:32;;;;;;;8.65;5.22;;;15.20;99.90;;;;;;5060486;28;20040;-67
2022/02/24 11:47:08;;;;;;;8.18;5.10;;;15.00;99.90;;;;;;5069352;28;20040;-65
2022/02/24 11:49:53;;;;;;;8.23;4.78;;;14.50;99.90;;;;;;5063088;28;20110;-66
2022/02/24 11:52:23;;;;;;;8.20;4.78;;;14.40;99.90;;;;;;5068002;28;20577;-67
2022/02/24 11:54:52;;;;;;;8.75;4.93;;;14.20;99.90;;;;;;5070001;28;20052;-67
2022/02/24 11:57:30;;;;;;;11.35;4.60;;;14.50;99.90;;;;;;5060775;28;20553;-67
2022/02/24 12:00:00;;;;;;;10.85;4.90;;;15.00;99.90;;;;;;5059338;28;20048;-65
2022/02/24 12:02:43;;;;;;;12.05;4.78;;;15.50;99.90;;;;;;5069728;28;20036;-66
2022/02/24 12:05:20;;;;;;;8.05;4.45;;;15.50;99.90;;;;;;5051508;28;20624;-65
2022/02/24 12:08:09;;;;;;;11.02;4.25;;;15.80;99.90;;;;;;5070231;28;20048;-66
2022/02/24 12:10:55;;;;;;;10.00;4.32;;;15.80;99.90;;;;;;5053043;28;20052;-66
2022/02/24 12:13:25;;;;;;;10.02;3.90;;;15.90;99.90;;;;;;5069418;28;20044;-65
2022/02/24 12:16:18;;;;;;;8.75;4.05;;;16.40;99.90;;;;;;5065537;28;20057;-66
2022/02/24 12:18:52;;;;;;;8.13;3.80;;;16.90;99.90;;;;;;5043563;28;20044;-66
2022/02/24 12:21:32;;;;;;;7.85;3.58;;;16.90;99.90;;;;;;5067092;28;20044;-65
2022/02/24 12:24:04;;;;;;;11.30;3.60;;;17.10;99.90;;;;;;5044005;28;20145;-65
2022/02/24 12:26:41;;;;;;;7.32;3.35;;;17.20;99.90;;;;;;5072389;28;20116;-65
2022/02/24 12:29:36;;;;;;;5.80;2.83;;;16.90;99.90;;;;;;5062355;28;20419;-65
2022/02/24 12:32:06;;;;;;;7.38;2.92;;;16.90;99.90;;;;;;5067958;28;20040;-64
2022/02/24 12:34:34;;;;;;;5.25;2.67;;;17.00;99.90;;;;;;5068855;28;20055;-67
2022/02/24 12:37:09;;;;;;;4.65;2.40;;;16.90;99.90;;;;;;5073380;28;20044;-67
2022/02/24 12:39:39;;;;;;;5.93;2.30;;;17.10;99.90;;;;;;5049257;28;20221;-66
2022/02/24 12:42:09;;;;;;;4.82;2.67;;;17.10;99.90;;;;;;5071177;28;20041;-66
2022/02/24 12:44:40;;;;;;;5.63;2.17;;;17.50;99.90;;;;;;5065064;28;20036;-66
2022/02/24 12:47:08;;;;;;;4.88;2.15;;;18.10;99.90;;;;;;5070360;28;20049;-65
2022/02/24 12:49:42;;;;;;;5.10;1.85;;;18.80;99.90;;;;;;5071887;28;20423;-67
2022/02/24 12:52:15;;;;;;;5.25;1.63;;;18.80;99.90;;;;;;5054495;28;20057;-66
2022/02/24 12:54:44;;;;;;;4.95;1.80;;;19.00;99.90;;;;;;5055374;28;20423;-66
2022/02/24 12:57:11;;;;;;;4.00;1.80;;;19.60;99.90;;;;;;5072575;28;20056;-66
2022/02/24 12:59:39;;;;;;;6.18;2.00;;;19.40;99.90;;;;;;5055903;28;20079;-68
2022/02/24 13:02:07;;;;;;;6.05;1.80;;;17.80;99.90;;;;;;5048175;28;20067;-66